PWSweather.com
Personal Weather Stations
Station Observations
ANTHEMNP
Anthem North Parkside, Anthem, AZ 85086

Anthem North ParksideAnthem, AZ 85086

Lat: 33.876464, Lon: -112.13861199999997

Elevation: 1930

Station Type: Davis Vantage Vue with Pro 2 console

http://www.azjerry.com/ANPW/wxindex.php

High Low Average
Temperature 100.8°F38.2°C 74.9°F23.8°C 89.4°F31.9°C
Dew Point 39.0°F3.9°C 28.0°F-2.2°C 34.3°F1.3°C
Winds 11.7 mph 18.8 kmh Calm Calm 3.0 mph SSE4.8 kmh SSE
Wind Gusts 22.0 mph35.4 kmh -- 8.0 mph12.9 kmh
Humidity 24% 8% 15%
Pressure 29.84 in1010.5 mb 29.84 in1010.5 mb -
Precipitation 0.00 in0.0 mm - -
Hour Temp Dew Point Humidity Winds Wind Gusts Pressure Precip Precip Rate Daily Precip Total
12:00 AM 79.5°F26.4°C 36.0°F2.2°C 21% 1.0 mph NNE1.6 kmh NNE 3.0 mph4.8 kmh 29.84 in1010.5 mb 0.00 in0.0 mm 0.00 in0.0 mm 0.00 in0.0 mm
12:10 AM 79.2°F26.2°C 37.0°F2.8°C 22% 0.4 mph NNE0.6 kmh NNE 2.0 mph3.2 kmh 29.84 in1010.5 mb 0.00 in0.0 mm 0.00 in0.0 mm 0.00 in0.0 mm
12:20 AM 78.6°F25.9°C 35.0°F1.7°C 21% 3.1 mph N5.0 kmh N 5.0 mph8.0 kmh 29.84 in1010.5 mb 0.00 in0.0 mm 0.00 in0.0 mm 0.00 in0.0 mm
12:30 AM 78.8°F26.0°C 37.0°F2.8°C 22% 1.9 mph N3.1 kmh N 5.0 mph8.0 kmh 29.84 in1010.5 mb 0.00 in0.0 mm 0.00 in0.0 mm 0.00 in0.0 mm
12:40 AM 79.2°F26.2°C 36.0°F2.2°C 21% 3.0 mph NNE4.8 kmh NNE 6.0 mph9.7 kmh 29.84 in1010.5 mb 0.00 in0.0 mm 0.00 in0.0 mm 0.00 in0.0 mm
12:50 AM 79.4°F26.3°C 36.0°F2.2°C 21% 3.0 mph NE4.8 kmh NE 6.0 mph9.7 kmh 29.84 in1010.5 mb 0.00 in0.0 mm 0.00 in0.0 mm 0.00 in0.0 mm
01:00 AM 80.3°F26.8°C 37.0°F2.8°C 21% 3.6 mph N5.8 kmh N 7.0 mph11.3 kmh 29.84 in1010.5 mb 0.00 in0.0 mm 0.00 in0.0 mm 0.00 in0.0 mm
01:10 AM 80.7°F27.1°C 36.0°F2.2°C 20% 3.3 mph N5.3 kmh N 6.0 mph9.7 kmh 29.84 in1010.5 mb 0.00 in0.0 mm 0.00 in0.0 mm 0.00 in0.0 mm
01:20 AM 78.7°F25.9°C 37.0°F2.8°C 22% 1.6 mph NW2.6 kmh NW 6.0 mph9.7 kmh 29.84 in1010.5 mb 0.00 in0.0 mm 0.00 in0.0 mm 0.00 in0.0 mm
01:30 AM 78.4°F25.8°C 36.0°F2.2°C 22% 1.3 mph NNE2.1 kmh NNE 4.0 mph6.4 kmh 29.84 in1010.5 mb 0.00 in0.0 mm 0.00 in0.0 mm 0.00 in0.0 mm
01:40 AM 77.7°F25.4°C 37.0°F2.8°C 23% 0.8 mph N1.3 kmh N 2.0 mph3.2 kmh 29.84 in1010.5 mb 0.00 in0.0 mm 0.00 in0.0 mm 0.00 in0.0 mm
01:50 AM 76.6°F24.8°C 36.0°F2.2°C 23% 1.6 mph NNE2.6 kmh NNE 3.0 mph4.8 kmh 29.84 in1010.5 mb 0.00 in0.0 mm 0.00 in0.0 mm 0.00 in0.0 mm
02:00 AM 76.3°F24.6°C 37.0°F2.8°C 24% 2.6 mph NE4.2 kmh NE 5.0 mph8.0 kmh 29.84 in1010.5 mb 0.00 in0.0 mm 0.00 in0.0 mm 0.00 in0.0 mm
02:10 AM 76.3°F24.6°C 37.0°F2.8°C 24% 3.8 mph NNE6.1 kmh NNE 10.0 mph16.1 kmh 29.84 in1010.5 mb 0.00 in0.0 mm 0.00 in0.0 mm 0.00 in0.0 mm
02:20 AM 76.7°F24.8°C 36.0°F2.2°C 23% 4.0 mph NNE6.4 kmh NNE 9.0 mph14.5 kmh 29.84 in1010.5 mb 0.00 in0.0 mm 0.00 in0.0 mm 0.00 in0.0 mm
02:30 AM 77.0°F25.0°C 36.0°F2.2°C 23% 2.5 mph NNE4.0 kmh NNE 11.0 mph17.7 kmh 29.84 in1010.5 mb 0.00 in0.0 mm 0.00 in0.0 mm 0.00 in0.0 mm
02:40 AM 76.3°F24.6°C 37.0°F2.8°C 24% 1.2 mph N1.9 kmh N 3.0 mph4.8 kmh 29.84 in1010.5 mb 0.00 in0.0 mm 0.00 in0.0 mm 0.00 in0.0 mm
02:50 AM 76.5°F24.7°C 36.0°F2.2°C 23% 2.4 mph NNE3.9 kmh NNE 6.0 mph9.7 kmh 29.84 in1010.5 mb 0.00 in0.0 mm 0.00 in0.0 mm 0.00 in0.0 mm
03:00 AM 76.5°F24.7°C 36.0°F2.2°C 23% 3.4 mph NNE5.5 kmh NNE 9.0 mph14.5 kmh 29.84 in1010.5 mb 0.00 in0.0 mm 0.00 in0.0 mm 0.00 in0.0 mm
03:10 AM 76.6°F24.8°C 36.0°F2.2°C 23% 2.6 mph NNW4.2 kmh NNW 6.0 mph9.7 kmh 29.84 in1010.5 mb 0.00 in0.0 mm 0.00 in0.0 mm 0.00 in0.0 mm
03:20 AM 76.2°F24.6°C 37.0°F2.8°C 24% 1.4 mph NNE2.3 kmh NNE 5.0 mph8.0 kmh 29.84 in1010.5 mb 0.00 in0.0 mm 0.00 in0.0 mm 0.00 in0.0 mm
03:30 AM 76.1°F24.5°C 37.0°F2.8°C 24% 2.9 mph N4.7 kmh N 6.0 mph9.7 kmh 29.84 in1010.5 mb 0.00 in0.0 mm 0.00 in0.0 mm 0.00 in0.0 mm
03:40 AM 75.7°F24.3°C 36.0°F2.2°C 24% 4.3 mph N6.9 kmh N 7.0 mph11.3 kmh 29.84 in1010.5 mb 0.00 in0.0 mm 0.00 in0.0 mm 0.00 in0.0 mm
03:50 AM 74.9°F23.8°C 36.0°F2.2°C 24% 2.9 mph NE4.7 kmh NE 5.0 mph8.0 kmh 29.84 in1010.5 mb 0.00 in0.0 mm 0.00 in0.0 mm 0.00 in0.0 mm
04:00 AM 74.9°F23.8°C 36.0°F2.2°C 24% 2.6 mph ENE4.2 kmh ENE 9.0 mph14.5 kmh 29.84 in1010.5 mb 0.00 in0.0 mm 0.00 in0.0 mm 0.00 in0.0 mm
04:10 AM 75.5°F24.2°C 36.0°F2.2°C 24% 5.8 mph NE9.3 kmh NE 11.0 mph17.7 kmh 29.84 in1010.5 mb 0.00 in0.0 mm 0.00 in0.0 mm 0.00 in0.0 mm
04:20 AM 75.8°F24.3°C 35.0°F1.7°C 23% 5.3 mph NE8.5 kmh NE 10.0 mph16.1 kmh 29.84 in1010.5 mb 0.00 in0.0 mm 0.00 in0.0 mm 0.00 in0.0 mm
04:30 AM 76.1°F24.5°C 36.0°F2.2°C 23% 5.2 mph N8.4 kmh N 10.0 mph16.1 kmh 29.84 in1010.5 mb 0.00 in0.0 mm 0.00 in0.0 mm 0.00 in0.0 mm
04:40 AM 76.5°F24.7°C 35.0°F1.7°C 22% 5.8 mph NNW9.3 kmh NNW 10.0 mph16.1 kmh 29.84 in1010.5 mb 0.00 in0.0 mm 0.00 in0.0 mm 0.00 in0.0 mm
04:50 AM 76.3°F24.6°C 35.0°F1.7°C 22% 5.9 mph N9.5 kmh N 12.0 mph19.3 kmh 29.84 in1010.5 mb 0.00 in0.0 mm 0.00 in0.0 mm 0.00 in0.0 mm
05:00 AM 77.4°F25.2°C 34.0°F1.1°C 21% 6.7 mph NNE10.8 kmh NNE 13.0 mph20.9 kmh 29.84 in1010.5 mb 0.00 in0.0 mm 0.00 in0.0 mm 0.00 in0.0 mm
05:10 AM 77.4°F25.2°C 36.0°F2.2°C 22% 6.0 mph NNE9.7 kmh NNE 10.0 mph16.1 kmh 29.84 in1010.5 mb 0.00 in0.0 mm 0.00 in0.0 mm 0.00 in0.0 mm
05:20 AM 78.9°F26.1°C 36.0°F2.2°C 21% 9.0 mph NNE14.5 kmh NNE 15.0 mph24.1 kmh 29.84 in1010.5 mb 0.00 in0.0 mm 0.00 in0.0 mm 0.00 in0.0 mm
05:30 AM 79.4°F26.3°C 35.0°F1.7°C 20% 7.7 mph NNE12.4 kmh NNE 15.0 mph24.1 kmh 29.84 in1010.5 mb 0.00 in0.0 mm 0.00 in0.0 mm 0.00 in0.0 mm
05:40 AM 78.7°F25.9°C 36.0°F2.2°C 21% 8.3 mph NW13.4 kmh NW 13.0 mph20.9 kmh 29.84 in1010.5 mb 0.00 in0.0 mm 0.00 in0.0 mm 0.00 in0.0 mm
05:50 AM 77.9°F25.5°C 35.0°F1.7°C 21% 6.9 mph NNE11.1 kmh NNE 14.0 mph22.5 kmh 29.84 in1010.5 mb 0.00 in0.0 mm 0.00 in0.0 mm 0.00 in0.0 mm
06:00 AM 78.1°F25.6°C 35.0°F1.7°C 21% 6.1 mph NE9.8 kmh NE 12.0 mph19.3 kmh 29.84 in1010.5 mb 0.00 in0.0 mm 0.00 in0.0 mm 0.00 in0.0 mm
06:10 AM 79.6°F26.4°C 36.0°F2.2°C 21% 6.2 mph N10.0 kmh N 12.0 mph19.3 kmh 29.84 in1010.5 mb 0.00 in0.0 mm 0.00 in0.0 mm 0.00 in0.0 mm
06:20 AM 80.8°F27.1°C 36.0°F2.2°C 20% 6.6 mph NNW10.6 kmh NNW 13.0 mph20.9 kmh 29.84 in1010.5 mb 0.00 in0.0 mm 0.00 in0.0 mm 0.00 in0.0 mm
06:30 AM 80.7°F27.1°C 36.0°F2.2°C 20% 6.3 mph ENE10.1 kmh ENE 12.0 mph19.3 kmh 29.84 in1010.5 mb 0.00 in0.0 mm 0.00 in0.0 mm 0.00 in0.0 mm
06:40 AM 81.8°F27.7°C 36.0°F2.2°C 19% 7.1 mph NE11.4 kmh NE 12.0 mph19.3 kmh 29.84 in1010.5 mb 0.00 in0.0 mm 0.00 in0.0 mm 0.00 in0.0 mm
06:50 AM 82.9°F28.3°C 35.0°F1.7°C 18% 7.9 mph NE12.7 kmh NE 17.0 mph27.4 kmh 29.84 in1010.5 mb 0.00 in0.0 mm 0.00 in0.0 mm 0.00 in0.0 mm
07:00 AM 83.8°F28.8°C 35.0°F1.7°C 17% 9.4 mph NNE15.1 kmh NNE 16.0 mph25.7 kmh 29.84 in1010.5 mb 0.00 in0.0 mm 0.00 in0.0 mm 0.00 in0.0 mm
07:10 AM 84.1°F28.9°C 35.0°F1.7°C 17% 9.6 mph NNE15.4 kmh NNE 19.0 mph30.6 kmh 29.84 in1010.5 mb 0.00 in0.0 mm 0.00 in0.0 mm 0.00 in0.0 mm
07:20 AM 84.3°F29.1°C 35.0°F1.7°C 17% 9.9 mph NNW15.9 kmh NNW 19.0 mph30.6 kmh 29.84 in1010.5 mb 0.00 in0.0 mm 0.00 in0.0 mm 0.00 in0.0 mm
07:30 AM 84.4°F29.1°C 35.0°F1.7°C 17% 11.7 mph NNE18.8 kmh NNE 20.0 mph32.2 kmh 29.84 in1010.5 mb 0.00 in0.0 mm 0.00 in0.0 mm 0.00 in0.0 mm
07:40 AM 84.1°F28.9°C 36.0°F2.2°C 18% 10.3 mph NW16.6 kmh NW 22.0 mph35.4 kmh 29.84 in1010.5 mb 0.00 in0.0 mm 0.00 in0.0 mm 0.00 in0.0 mm
07:50 AM 84.5°F29.2°C 37.0°F2.8°C 18% 10.3 mph N16.6 kmh N 22.0 mph35.4 kmh 29.84 in1010.5 mb 0.00 in0.0 mm 0.00 in0.0 mm 0.00 in0.0 mm
08:00 AM 85.1°F29.5°C 37.0°F2.8°C 18% 9.0 mph NNE14.5 kmh NNE 19.0 mph30.6 kmh 29.84 in1010.5 mb 0.00 in0.0 mm 0.00 in0.0 mm 0.00 in0.0 mm
08:10 AM 85.7°F29.8°C 36.0°F2.2°C 17% 8.4 mph NE13.5 kmh NE 17.0 mph27.4 kmh 29.84 in1010.5 mb 0.00 in0.0 mm 0.00 in0.0 mm 0.00 in0.0 mm
08:20 AM 86.5°F30.3°C 37.0°F2.8°C 17% 7.6 mph NE12.2 kmh NE 17.0 mph27.4 kmh 29.84 in1010.5 mb 0.00 in0.0 mm 0.00 in0.0 mm 0.00 in0.0 mm
08:30 AM 87.3°F30.7°C 37.0°F2.8°C 17% 7.4 mph N11.9 kmh N 18.0 mph29.0 kmh 29.84 in1010.5 mb 0.00 in0.0 mm 0.00 in0.0 mm 0.00 in0.0 mm
08:40 AM 87.9°F31.1°C 36.0°F2.2°C 16% 8.4 mph N13.5 kmh N 17.0 mph27.4 kmh 29.84 in1010.5 mb 0.00 in0.0 mm 0.00 in0.0 mm 0.00 in0.0 mm
08:50 AM 88.8°F31.6°C 37.0°F2.8°C 16% 8.3 mph NNE13.4 kmh NNE 15.0 mph24.1 kmh 29.84 in1010.5 mb 0.00 in0.0 mm 0.00 in0.0 mm 0.00 in0.0 mm
09:00 AM 89.4°F31.9°C 36.0°F2.2°C 15% 10.2 mph N16.4 kmh N 16.0 mph25.7 kmh 29.84 in1010.5 mb 0.00 in0.0 mm 0.00 in0.0 mm 0.00 in0.0 mm
09:10 AM 89.9°F32.2°C 36.0°F2.2°C 15% 9.3 mph N15.0 kmh N 16.0 mph25.7 kmh 29.84 in1010.5 mb 0.00 in0.0 mm 0.00 in0.0 mm 0.00 in0.0 mm
09:20 AM 90.9°F32.7°C 37.0°F2.8°C 15% 8.6 mph NNE13.8 kmh NNE 14.0 mph22.5 kmh 29.84 in1010.5 mb 0.00 in0.0 mm 0.00 in0.0 mm 0.00 in0.0 mm
09:30 AM 91.3°F32.9°C 36.0°F2.2°C 14% 8.8 mph NNE14.2 kmh NNE 13.0 mph20.9 kmh 29.84 in1010.5 mb 0.00 in0.0 mm 0.00 in0.0 mm 0.00 in0.0 mm
09:40 AM 92.1°F33.4°C 36.0°F2.2°C 14% 4.8 mph N7.7 kmh N 16.0 mph25.7 kmh 29.84 in1010.5 mb 0.00 in0.0 mm 0.00 in0.0 mm 0.00 in0.0 mm
09:50 AM 92.3°F33.5°C 37.0°F2.8°C 14% 5.4 mph N8.7 kmh N 14.0 mph22.5 kmh 29.84 in1010.5 mb 0.00 in0.0 mm 0.00 in0.0 mm 0.00 in0.0 mm
10:00 AM 92.8°F33.8°C 37.0°F2.8°C 14% 6.0 mph NNE9.7 kmh NNE 14.0 mph22.5 kmh 29.84 in1010.5 mb 0.00 in0.0 mm 0.00 in0.0 mm 0.00 in0.0 mm
10:10 AM 93.9°F34.4°C 36.0°F2.2°C 13% 5.9 mph NNE9.5 kmh NNE 13.0 mph20.9 kmh 29.84 in1010.5 mb 0.00 in0.0 mm 0.00 in0.0 mm 0.00 in0.0 mm
10:20 AM 93.9°F34.4°C 36.0°F2.2°C 13% 4.9 mph NW7.9 kmh NW 14.0 mph22.5 kmh 29.84 in1010.5 mb 0.00 in0.0 mm 0.00 in0.0 mm 0.00 in0.0 mm
10:30 AM 94.6°F34.8°C 37.0°F2.8°C 13% 3.9 mph N6.3 kmh N 11.0 mph17.7 kmh 29.84 in1010.5 mb 0.00 in0.0 mm 0.00 in0.0 mm 0.00 in0.0 mm
10:40 AM 94.6°F34.8°C 35.0°F1.7°C 12% 4.5 mph NW7.2 kmh NW 12.0 mph19.3 kmh 29.84 in1010.5 mb 0.00 in0.0 mm 0.00 in0.0 mm 0.00 in0.0 mm
10:50 AM 94.9°F34.9°C 33.0°F0.6°C 11% 5.0 mph NE8.0 kmh NE 10.0 mph16.1 kmh 29.84 in1010.5 mb 0.00 in0.0 mm 0.00 in0.0 mm 0.00 in0.0 mm
11:00 AM 95.0°F35.0°C 33.0°F0.6°C 11% 4.8 mph NW7.7 kmh NW 10.0 mph16.1 kmh 29.84 in1010.5 mb 0.00 in0.0 mm 0.00 in0.0 mm 0.00 in0.0 mm
11:10 AM 96.7°F35.9°C 32.0°F0.0°C 10% 2.3 mph NE3.7 kmh NE 7.0 mph11.3 kmh 29.84 in1010.5 mb 0.00 in0.0 mm 0.00 in0.0 mm 0.00 in0.0 mm
11:20 AM 97.6°F36.4°C 32.0°F0.0°C 10% 0.3 mph NW0.5 kmh NW 5.0 mph8.0 kmh 29.84 in1010.5 mb 0.00 in0.0 mm 0.00 in0.0 mm 0.00 in0.0 mm
11:30 AM 98.1°F36.7°C 33.0°F0.6°C 10% 2.1 mph S3.4 kmh S 6.0 mph9.7 kmh 29.84 in1010.5 mb 0.00 in0.0 mm 0.00 in0.0 mm 0.00 in0.0 mm
11:40 AM 98.7°F37.1°C 33.0°F0.6°C 10% 1.1 mph N1.8 kmh N 6.0 mph9.7 kmh 29.84 in1010.5 mb 0.00 in0.0 mm 0.00 in0.0 mm 0.00 in0.0 mm
11:50 AM 98.8°F37.1°C 38.0°F3.3°C 12% 2.8 mph SSE4.5 kmh SSE 8.0 mph12.9 kmh 29.84 in1010.5 mb 0.00 in0.0 mm 0.00 in0.0 mm 0.00 in0.0 mm
12:00 PM 98.0°F36.7°C 37.0°F2.8°C 12% 4.1 mph SE6.6 kmh SE 10.0 mph16.1 kmh 29.84 in1010.5 mb 0.00 in0.0 mm 0.00 in0.0 mm 0.00 in0.0 mm
12:10 PM 97.7°F36.5°C 37.0°F2.8°C 12% 5.9 mph SW9.5 kmh SW 12.0 mph19.3 kmh 29.84 in1010.5 mb 0.00 in0.0 mm 0.00 in0.0 mm 0.00 in0.0 mm
12:20 PM 98.0°F36.7°C 37.0°F2.8°C 12% 3.7 mph SE6.0 kmh SE 12.0 mph19.3 kmh 29.84 in1010.5 mb 0.00 in0.0 mm 0.00 in0.0 mm 0.00 in0.0 mm
12:30 PM 97.9°F36.6°C 37.0°F2.8°C 12% 1.9 mph S3.1 kmh S 9.0 mph14.5 kmh 29.84 in1010.5 mb 0.00 in0.0 mm 0.00 in0.0 mm 0.00 in0.0 mm
12:40 PM 97.9°F36.6°C 37.0°F2.8°C 12% 4.7 mph SW7.6 kmh SW 10.0 mph16.1 kmh 29.84 in1010.5 mb 0.00 in0.0 mm 0.00 in0.0 mm 0.00 in0.0 mm
12:50 PM 99.1°F37.3°C 36.0°F2.2°C 11% 4.5 mph SW7.2 kmh SW 10.0 mph16.1 kmh 29.84 in1010.5 mb 0.00 in0.0 mm 0.00 in0.0 mm 0.00 in0.0 mm
01:00 PM 99.0°F37.2°C 36.0°F2.2°C 11% 4.2 mph SSW6.8 kmh SSW 15.0 mph24.1 kmh 29.84 in1010.5 mb 0.00 in0.0 mm 0.00 in0.0 mm 0.00 in0.0 mm
01:10 PM 99.3°F37.4°C 36.0°F2.2°C 11% 2.1 mph WSW3.4 kmh WSW 9.0 mph14.5 kmh 29.84 in1010.5 mb 0.00 in0.0 mm 0.00 in0.0 mm 0.00 in0.0 mm
01:20 PM 99.7°F37.6°C 34.0°F1.1°C 10% 2.3 mph NW3.7 kmh NW 7.0 mph11.3 kmh 29.84 in1010.5 mb 0.00 in0.0 mm 0.00 in0.0 mm 0.00 in0.0 mm
01:30 PM 99.4°F37.4°C 34.0°F1.1°C 10% 3.6 mph SSE5.8 kmh SSE 9.0 mph14.5 kmh 29.84 in1010.5 mb 0.00 in0.0 mm 0.00 in0.0 mm 0.00 in0.0 mm
01:40 PM 99.4°F37.4°C 36.0°F2.2°C 11% 2.6 mph SW4.2 kmh SW 7.0 mph11.3 kmh 29.84 in1010.5 mb 0.00 in0.0 mm 0.00 in0.0 mm 0.00 in0.0 mm
01:50 PM 99.1°F37.3°C 36.0°F2.2°C 11% 4.4 mph SE7.1 kmh SE 10.0 mph16.1 kmh 29.84 in1010.5 mb 0.00 in0.0 mm 0.00 in0.0 mm 0.00 in0.0 mm
02:00 PM 99.8°F37.7°C 34.0°F1.1°C 10% 2.7 mph SE4.3 kmh SE 8.0 mph12.9 kmh 29.84 in1010.5 mb 0.00 in0.0 mm 0.00 in0.0 mm 0.00 in0.0 mm
02:10 PM 100.0°F37.8°C 37.0°F2.8°C 11% 2.9 mph WSW4.7 kmh WSW 8.0 mph12.9 kmh 29.84 in1010.5 mb 0.00 in0.0 mm 0.00 in0.0 mm 0.00 in0.0 mm
02:20 PM 99.8°F37.7°C 36.0°F2.2°C 11% 5.5 mph SW8.9 kmh SW 11.0 mph17.7 kmh 29.84 in1010.5 mb 0.00 in0.0 mm 0.00 in0.0 mm 0.00 in0.0 mm
02:30 PM 99.8°F37.7°C 36.0°F2.2°C 11% 3.4 mph SW5.5 kmh SW 11.0 mph17.7 kmh 29.84 in1010.5 mb 0.00 in0.0 mm 0.00 in0.0 mm 0.00 in0.0 mm
02:40 PM 100.2°F37.9°C 37.0°F2.8°C 11% 2.4 mph S3.9 kmh S 8.0 mph12.9 kmh 29.84 in1010.5 mb 0.00 in0.0 mm 0.00 in0.0 mm 0.00 in0.0 mm
02:50 PM 99.8°F37.7°C 34.0°F1.1°C 10% 2.0 mph S3.2 kmh S 6.0 mph9.7 kmh 29.84 in1010.5 mb 0.00 in0.0 mm 0.00 in0.0 mm 0.00 in0.0 mm
03:00 PM 99.8°F37.7°C 39.0°F3.9°C 12% 0.8 mph S1.3 kmh S 6.0 mph9.7 kmh 29.84 in1010.5 mb 0.00 in0.0 mm 0.00 in0.0 mm 0.00 in0.0 mm
03:10 PM 100.2°F37.9°C 37.0°F2.8°C 11% 0.6 mph SSW1.0 kmh SSW 3.0 mph4.8 kmh 29.84 in1010.5 mb 0.00 in0.0 mm 0.00 in0.0 mm 0.00 in0.0 mm
03:20 PM 100.0°F37.8°C 34.0°F1.1°C 10% 2.5 mph SW4.0 kmh SW 5.0 mph8.0 kmh 29.84 in1010.5 mb 0.00 in0.0 mm 0.00 in0.0 mm 0.00 in0.0 mm
03:30 PM 99.5°F37.5°C 34.0°F1.1°C 10% 2.3 mph SW3.7 kmh SW 7.0 mph11.3 kmh 29.84 in1010.5 mb 0.00 in0.0 mm 0.00 in0.0 mm 0.00 in0.0 mm
03:40 PM 100.8°F38.2°C 32.0°F0.0°C 9% 2.3 mph SW3.7 kmh SW 6.0 mph9.7 kmh 29.84 in1010.5 mb 0.00 in0.0 mm 0.00 in0.0 mm 0.00 in0.0 mm
03:50 PM 100.6°F38.1°C 32.0°F0.0°C 9% 3.3 mph WSW5.3 kmh WSW 8.0 mph12.9 kmh 29.84 in1010.5 mb 0.00 in0.0 mm 0.00 in0.0 mm 0.00 in0.0 mm
04:00 PM 100.3°F37.9°C 32.0°F0.0°C 9% 1.6 mph SW2.6 kmh SW 8.0 mph12.9 kmh 29.84 in1010.5 mb 0.00 in0.0 mm 0.00 in0.0 mm 0.00 in0.0 mm
04:10 PM 99.5°F37.5°C 31.0°F-0.6°C 9% 2.0 mph SE3.2 kmh SE 7.0 mph11.3 kmh 29.84 in1010.5 mb 0.00 in0.0 mm 0.00 in0.0 mm 0.00 in0.0 mm
04:20 PM 99.6°F37.6°C 31.0°F-0.6°C 9% 1.0 mph NW1.6 kmh NW 4.0 mph6.4 kmh 29.84 in1010.5 mb 0.00 in0.0 mm 0.00 in0.0 mm 0.00 in0.0 mm
04:30 PM 100.0°F37.8°C 32.0°F0.0°C 9% 1.9 mph SSW3.1 kmh SSW 10.0 mph16.1 kmh 29.84 in1010.5 mb 0.00 in0.0 mm 0.00 in0.0 mm 0.00 in0.0 mm
04:40 PM 100.7°F38.2°C 32.0°F0.0°C 9% 1.6 mph NNW2.6 kmh NNW 10.0 mph16.1 kmh 29.84 in1010.5 mb 0.00 in0.0 mm 0.00 in0.0 mm 0.00 in0.0 mm
04:50 PM 100.3°F37.9°C 29.0°F-1.7°C 8% 1.4 mph N2.3 kmh N 4.0 mph6.4 kmh 29.84 in1010.5 mb 0.00 in0.0 mm 0.00 in0.0 mm 0.00 in0.0 mm
05:00 PM 100.1°F37.8°C 32.0°F0.0°C 9% 0.7 mph W1.1 kmh W 3.0 mph4.8 kmh 29.84 in1010.5 mb 0.00 in0.0 mm 0.00 in0.0 mm 0.00 in0.0 mm
05:10 PM 99.7°F37.6°C 31.0°F-0.6°C 9% 1.3 mph SSW2.1 kmh SSW 5.0 mph8.0 kmh 29.84 in1010.5 mb 0.00 in0.0 mm 0.00 in0.0 mm 0.00 in0.0 mm
05:20 PM 99.4°F37.4°C 31.0°F-0.6°C 9% 1.7 mph SW2.7 kmh SW 5.0 mph8.0 kmh 29.84 in1010.5 mb 0.00 in0.0 mm 0.00 in0.0 mm 0.00 in0.0 mm
05:30 PM 99.7°F37.6°C 31.0°F-0.6°C 9% 0.9 mph NW1.4 kmh NW 5.0 mph8.0 kmh 29.84 in1010.5 mb 0.00 in0.0 mm 0.00 in0.0 mm 0.00 in0.0 mm
05:40 PM 99.4°F37.4°C 31.0°F-0.6°C 9% 0.2 mph S0.3 kmh S 2.0 mph3.2 kmh 29.84 in1010.5 mb 0.00 in0.0 mm 0.00 in0.0 mm 0.00 in0.0 mm
05:50 PM 99.7°F37.6°C 29.0°F-1.7°C 8% 0.4 mph SW0.6 kmh SW 2.0 mph3.2 kmh 29.84 in1010.5 mb 0.00 in0.0 mm 0.00 in0.0 mm 0.00 in0.0 mm
06:00 PM 99.5°F37.5°C 28.0°F-2.2°C 8% 0.3 mph SW0.5 kmh SW 4.0 mph6.4 kmh 29.84 in1010.5 mb 0.00 in0.0 mm 0.00 in0.0 mm 0.00 in0.0 mm
06:10 PM 99.3°F37.4°C 31.0°F-0.6°C 9% 0.8 mph NW1.3 kmh NW 4.0 mph6.4 kmh 29.84 in1010.5 mb 0.00 in0.0 mm 0.00 in0.0 mm 0.00 in0.0 mm
06:20 PM 99.2°F37.3°C 31.0°F-0.6°C 9% 0.3 mph NW0.5 kmh NW 2.0 mph3.2 kmh 29.84 in1010.5 mb 0.00 in0.0 mm 0.00 in0.0 mm 0.00 in0.0 mm
06:30 PM 98.9°F37.2°C 31.0°F-0.6°C 9% 0.7 mph SW1.1 kmh SW 2.0 mph3.2 kmh 29.84 in1010.5 mb 0.00 in0.0 mm 0.00 in0.0 mm 0.00 in0.0 mm
06:40 PM 98.7°F37.1°C 31.0°F-0.6°C 9% 3.2 mph SW5.1 kmh SW 6.0 mph9.7 kmh 29.84 in1010.5 mb 0.00 in0.0 mm 0.00 in0.0 mm 0.00 in0.0 mm
06:50 PM 98.6°F37.0°C 31.0°F-0.6°C 9% 3.4 mph SW5.5 kmh SW 7.0 mph11.3 kmh 29.84 in1010.5 mb 0.00 in0.0 mm 0.00 in0.0 mm 0.00 in0.0 mm
07:00 PM 98.3°F36.8°C 30.0°F-1.1°C 9% 1.8 mph SW2.9 kmh SW 7.0 mph11.3 kmh 29.84 in1010.5 mb 0.00 in0.0 mm 0.00 in0.0 mm 0.00 in0.0 mm
07:10 PM 98.0°F36.7°C 30.0°F-1.1°C 9% 1.6 mph SW2.6 kmh SW 6.0 mph9.7 kmh 29.84 in1010.5 mb 0.00 in0.0 mm 0.00 in0.0 mm 0.00 in0.0 mm
07:20 PM 97.5°F36.4°C 30.0°F-1.1°C 9% 2.6 mph SSW4.2 kmh SSW 6.0 mph9.7 kmh 29.84 in1010.5 mb 0.00 in0.0 mm 0.00 in0.0 mm 0.00 in0.0 mm
07:30 PM 96.8°F36.0°C 29.0°F-1.7°C 9% 2.5 mph SSE4.0 kmh SSE 6.0 mph9.7 kmh 29.84 in1010.5 mb 0.00 in0.0 mm 0.00 in0.0 mm 0.00 in0.0 mm
07:40 PM 96.3°F35.7°C 29.0°F-1.7°C 9% 3.0 mph WSW4.8 kmh WSW 7.0 mph11.3 kmh 29.84 in1010.5 mb 0.00 in0.0 mm 0.00 in0.0 mm 0.00 in0.0 mm
07:50 PM 95.3°F35.2°C 31.0°F-0.6°C 10% 3.3 mph SW5.3 kmh SW 9.0 mph14.5 kmh 29.84 in1010.5 mb 0.00 in0.0 mm 0.00 in0.0 mm 0.00 in0.0 mm
08:00 PM 94.5°F34.7°C 32.0°F0.0°C 11% 2.6 mph S4.2 kmh S 8.0 mph12.9 kmh 29.84 in1010.5 mb 0.00 in0.0 mm 0.00 in0.0 mm 0.00 in0.0 mm
08:10 PM 93.6°F34.2°C 34.0°F1.1°C 12% 1.9 mph SE3.1 kmh SE 5.0 mph8.0 kmh 29.84 in1010.5 mb 0.00 in0.0 mm 0.00 in0.0 mm 0.00 in0.0 mm
08:20 PM 93.0°F33.9°C 33.0°F0.6°C 12% 2.0 mph SW3.2 kmh SW 5.0 mph8.0 kmh 29.84 in1010.5 mb 0.00 in0.0 mm 0.00 in0.0 mm 0.00 in0.0 mm
08:30 PM 92.5°F33.6°C 33.0°F0.6°C 12% 1.6 mph SW2.6 kmh SW 4.0 mph6.4 kmh 29.84 in1010.5 mb 0.00 in0.0 mm 0.00 in0.0 mm 0.00 in0.0 mm
08:40 PM 92.2°F33.4°C 33.0°F0.6°C 12% 1.3 mph SSW2.1 kmh SSW 3.0 mph4.8 kmh 29.84 in1010.5 mb 0.00 in0.0 mm 0.00 in0.0 mm 0.00 in0.0 mm
08:50 PM 91.4°F33.0°C 32.0°F0.0°C 12% 0.1 mph S0.2 kmh S 1.0 mph1.6 kmh 29.84 in1010.5 mb 0.00 in0.0 mm 0.00 in0.0 mm 0.00 in0.0 mm
09:00 PM 90.5°F32.5°C 33.0°F0.6°C 13% Calm Calm -- 29.84 in1010.5 mb 0.00 in0.0 mm 0.00 in0.0 mm 0.00 in0.0 mm
09:10 PM 89.1°F31.7°C 34.0°F1.1°C 14% Calm Calm -- 29.84 in1010.5 mb 0.00 in0.0 mm 0.00 in0.0 mm 0.00 in0.0 mm
09:20 PM 88.9°F31.6°C 32.0°F0.0°C 13% Calm Calm -- 29.84 in1010.5 mb 0.00 in0.0 mm 0.00 in0.0 mm 0.00 in0.0 mm
09:30 PM 88.6°F31.4°C 32.0°F0.0°C 13% Calm Calm -- 29.84 in1010.5 mb 0.00 in0.0 mm 0.00 in0.0 mm 0.00 in0.0 mm
09:40 PM 88.6°F31.4°C 32.0°F0.0°C 13% Calm Calm -- 29.84 in1010.5 mb 0.00 in0.0 mm 0.00 in0.0 mm 0.00 in0.0 mm
09:50 PM 88.1°F31.2°C 31.0°F-0.6°C 13% Calm Calm -- 29.84 in1010.5 mb 0.00 in0.0 mm 0.00 in0.0 mm 0.00 in0.0 mm
10:00 PM 87.4°F30.8°C 33.0°F0.6°C 14% Calm Calm -- 29.84 in1010.5 mb 0.00 in0.0 mm 0.00 in0.0 mm 0.00 in0.0 mm
10:10 PM 86.9°F30.5°C 32.0°F0.0°C 14% Calm Calm -- 29.84 in1010.5 mb 0.00 in0.0 mm 0.00 in0.0 mm 0.00 in0.0 mm
10:20 PM 86.5°F30.3°C 32.0°F0.0°C 14% Calm Calm -- 29.84 in1010.5 mb 0.00 in0.0 mm 0.00 in0.0 mm 0.00 in0.0 mm
10:30 PM 86.1°F30.1°C 32.0°F0.0°C 14% Calm Calm -- 29.84 in1010.5 mb 0.00 in0.0 mm 0.00 in0.0 mm 0.00 in0.0 mm
10:40 PM 85.7°F29.8°C 31.0°F-0.6°C 14% Calm Calm -- 29.84 in1010.5 mb 0.00 in0.0 mm 0.00 in0.0 mm 0.00 in0.0 mm
10:50 PM 86.0°F30.0°C 31.0°F-0.6°C 14% Calm Calm -- 29.84 in1010.5 mb 0.00 in0.0 mm 0.00 in0.0 mm 0.00 in0.0 mm
11:00 PM 86.0°F30.0°C 31.0°F-0.6°C 14% Calm Calm -- 29.84 in1010.5 mb 0.00 in0.0 mm 0.00 in0.0 mm 0.00 in0.0 mm
11:10 PM 84.1°F28.9°C 32.0°F0.0°C 15% Calm Calm 1.0 mph1.6 kmh 29.84 in1010.5 mb 0.00 in0.0 mm 0.00 in0.0 mm 0.00 in0.0 mm
11:20 PM 83.8°F28.8°C 31.0°F-0.6°C 15% 2.4 mph N3.9 kmh N 8.0 mph12.9 kmh 29.84 in1010.5 mb 0.00 in0.0 mm 0.00 in0.0 mm 0.00 in0.0 mm
11:30 PM 85.4°F29.7°C 31.0°F-0.6°C 14% 1.7 mph N2.7 kmh N 9.0 mph14.5 kmh 29.84 in1010.5 mb 0.00 in0.0 mm 0.00 in0.0 mm 0.00 in0.0 mm
11:40 PM 85.7°F29.8°C 31.0°F-0.6°C 14% 1.1 mph NNW1.8 kmh NNW 3.0 mph4.8 kmh 29.84 in1010.5 mb 0.00 in0.0 mm 0.00 in0.0 mm 0.00 in0.0 mm
11:50 PM 85.4°F29.7°C 29.0°F-1.7°C 13% 1.2 mph NNE1.9 kmh NNE 2.0 mph3.2 kmh 29.84 in1010.5 mb 0.00 in0.0 mm 0.00 in0.0 mm 0.00 in0.0 mm